sensor_id;sensor_type;location;lat;lon;timestamp;P1;durP1;ratioP1;P2;durP2;ratioP2
6499;SDS011;3283;52.330;9.772;2023-02-01T05:06:56;351.93;;;100.63;;
6499;SDS011;3283;52.330;9.772;2023-02-01T05:09:21;165.43;;;76.03;;
6499;SDS011;3283;52.330;9.772;2023-02-01T05:11:47;48.40;;;19.33;;
6499;SDS011;3283;52.330;9.772;2023-02-01T05:14:31;38.10;;;6.23;;
6499;SDS011;3283;52.330;9.772;2023-02-01T05:16:56;42.40;;;9.60;;
6499;SDS011;3283;52.330;9.772;2023-02-01T05:19:22;108.23;;;56.07;;
6499;SDS011;3283;52.330;9.772;2023-02-01T05:21:47;147.43;;;73.23;;
6499;SDS011;3283;52.330;9.772;2023-02-01T05:24:12;115.30;;;59.10;;
6499;SDS011;3283;52.330;9.772;2023-02-01T05:26:39;244.37;;;93.00;;
6499;SDS011;3283;52.330;9.772;2023-02-01T05:29:06;86.20;;;45.03;;
6499;SDS011;3283;52.330;9.772;2023-02-01T05:31:32;264.80;;;87.37;;
6499;SDS011;3283;52.330;9.772;2023-02-01T05:33:58;375.77;;;118.40;;
6499;SDS011;3283;52.330;9.772;2023-02-01T05:36:23;361.20;;;94.60;;
6499;SDS011;3283;52.330;9.772;2023-02-01T05:38:49;483.80;;;113.03;;
6499;SDS011;3283;52.330;9.772;2023-02-01T05:41:14;351.13;;;102.40;;
6499;SDS011;3283;52.330;9.772;2023-02-01T05:43:39;325.53;;;106.70;;
6499;SDS011;3283;52.330;9.772;2023-02-01T05:46:05;471.07;;;110.83;;
6499;SDS011;3283;52.330;9.772;2023-02-01T05:48:30;325.03;;;98.90;;
6499;SDS011;3283;52.330;9.772;2023-02-01T05:50:56;407.47;;;102.50;;
6499;SDS011;3283;52.330;9.772;2023-02-01T05:53:21;286.93;;;104.53;;
6499;SDS011;3283;52.330;9.772;2023-02-01T05:55:46;384.57;;;123.07;;
6499;SDS011;3283;52.330;9.772;2023-02-01T05:58:12;357.50;;;108.17;;
6499;SDS011;3283;52.330;9.772;2023-02-01T06:00:37;391.87;;;126.57;;
6499;SDS011;3283;52.330;9.772;2023-02-01T06:03:03;462.23;;;130.20;;
6499;SDS011;3283;52.330;9.772;2023-02-01T06:05:28;468.77;;;158.17;;
6499;SDS011;3283;52.330;9.772;2023-02-01T06:07:54;478.90;;;170.67;;
6499;SDS011;3283;52.330;9.772;2023-02-01T06:10:19;503.53;;;134.67;;
6499;SDS011;3283;52.330;9.772;2023-02-01T06:12:45;461.10;;;167.93;;
6499;SDS011;3283;52.330;9.772;2023-02-01T06:15:11;482.50;;;147.60;;
6499;SDS011;3283;52.330;9.772;2023-02-01T06:17:38;508.77;;;136.30;;
6499;SDS011;3283;52.330;9.772;2023-02-01T06:20:06;419.83;;;158.80;;
6499;SDS011;3283;52.330;9.772;2023-02-01T06:22:32;451.37;;;128.47;;
6499;SDS011;3283;52.330;9.772;2023-02-01T06:24:58;311.97;;;127.00;;
6499;SDS011;3283;52.330;9.772;2023-02-01T06:27:24;440.50;;;135.37;;
6499;SDS011;3283;52.330;9.772;2023-02-01T06:29:50;481.37;;;124.93;;
6499;SDS011;3283;52.330;9.772;2023-02-01T06:32:15;392.87;;;117.30;;
6499;SDS011;3283;52.330;9.772;2023-02-01T06:34:42;344.47;;;117.53;;
6499;SDS011;3283;52.330;9.772;2023-02-01T06:37:07;417.63;;;119.87;;
6499;SDS011;3283;52.330;9.772;2023-02-01T06:39:33;369.83;;;120.70;;
6499;SDS011;3283;52.330;9.772;2023-02-01T06:41:58;396.07;;;118.97;;
6499;SDS011;3283;52.330;9.772;2023-02-01T06:44:23;389.00;;;119.67;;
6499;SDS011;3283;52.330;9.772;2023-02-01T06:46:49;422.77;;;122.30;;
6499;SDS011;3283;52.330;9.772;2023-02-01T06:49:14;425.33;;;118.77;;
6499;SDS011;3283;52.330;9.772;2023-02-01T06:51:39;439.93;;;114.87;;
6499;SDS011;3283;52.330;9.772;2023-02-01T06:54:05;428.53;;;120.90;;
6499;SDS011;3283;52.330;9.772;2023-02-01T06:56:30;310.73;;;108.97;;
6499;SDS011;3283;52.330;9.772;2023-02-01T06:58:56;344.83;;;104.50;;
6499;SDS011;3283;52.330;9.772;2023-02-01T07:01:21;380.27;;;131.83;;
6499;SDS011;3283;52.330;9.772;2023-02-01T07:07:20;467.63;;;131.17;;
6499;SDS011;3283;52.330;9.772;2023-02-01T07:09:47;468.97;;;139.47;;
6499;SDS011;3283;52.330;9.772;2023-02-01T07:12:15;488.37;;;126.37;;
6499;SDS011;3283;52.330;9.772;2023-02-01T07:14:41;505.73;;;129.07;;
6499;SDS011;3283;52.330;9.772;2023-02-01T07:17:07;514.10;;;150.07;;
6499;SDS011;3283;52.330;9.772;2023-02-01T15:08:29;15.33;;;5.00;;
6499;SDS011;3283;52.330;9.772;2023-02-01T15:10:56;24.97;;;7.53;;
6499;SDS011;3283;52.330;9.772;2023-02-01T15:13:27;18.73;;;5.80;;
6499;SDS011;3283;52.330;9.772;2023-02-01T15:18:29;23.03;;;5.50;;
6499;SDS011;3283;52.330;9.772;2023-02-01T15:20:58;72.70;;;45.40;;
6499;SDS011;3283;52.330;9.772;2023-02-01T15:23:24;51.23;;;31.93;;
6499;SDS011;3283;52.330;9.772;2023-02-01T15:25:50;85.20;;;47.17;;
6499;SDS011;3283;52.330;9.772;2023-02-01T15:28:16;35.50;;;12.57;;
6499;SDS011;3283;52.330;9.772;2023-02-01T15:30:52;47.23;;;32.70;;
6499;SDS011;3283;52.330;9.772;2023-02-01T15:33:28;42.37;;;13.50;;
6499;SDS011;3283;52.330;9.772;2023-02-01T15:35:56;102.63;;;83.07;;
6499;SDS011;3283;52.330;9.772;2023-02-01T15:38:37;178.50;;;78.17;;
6499;SDS011;3283;52.330;9.772;2023-02-01T15:46:24;296.23;;;104.50;;
6499;SDS011;3283;52.330;9.772;2023-02-01T15:53:31;401.57;;;101.60;;
6499;SDS011;3283;52.330;9.772;2023-02-01T16:22:52;54.40;;;40.17;;
6499;SDS011;3283;52.330;9.772;2023-02-01T16:25:17;80.67;;;49.13;;
6499;SDS011;3283;52.330;9.772;2023-02-01T16:27:43;159.43;;;84.03;;
6499;SDS011;3283;52.330;9.772;2023-02-01T16:30:08;168.43;;;84.47;;
